Terminal Aerodrome Forecast
Issued by NWS

Home | Current Version | Previous Version | Text Only | Print | Product List | Glossary On
Versions: 1 2 3 4 5 6 7 8 9 10 11 12 13 14 15
000
FTUS45 KABQ 260541
TAFLVS
TAF
KLVS 260541Z 2606/2706 VRB06KT P6SM SCT110
     FM261100 34008KT P6SM SKC
     FM261600 17010KT P6SM FEW060
     FM262100 20012G20KT P6SM SCT060
     FM270100 33008KT P6SM SCT060=

USA.gov is the U.S. government's official web portal to all federal, state and local government web resources and services.